Teeswater, Canada
Current Conditions -  °F | °C
As of 12:00 PM on Sunday 21 Dec 2014 (Local Time) from CYVV Reporting Station
Overcast Overcast  
Wind Chill: 24°   Ceiling: 3000
Heat Index: 30°   Visibility: 15mi
Dew Point: 25°   Wind: 6mph
Humidity: 80%   Direction: 180°S
Pressure: 30.26"   Gusts: NA
Location:  43.98°N, 81.28°W
Report Text: CYVV 211700Z 18005KT 15SM OVC030 M01/M04 A3026 RMK SC8 SLP260
Loading
Personal Weather Stations






























Interactive Weather Map New forecast layout! Learn more

10-Day Weather Forecast

Advertisements
Track Severe Weather on mobile